sensor_id;sensor_type;location;lat;lon;timestamp;P1;durP1;ratioP1;P2;durP2;ratioP2
69847;SDS011;57143;55.940;37.496;2023-04-01T00:01:26;18.02;;;6.55;;
69847;SDS011;57143;55.940;37.496;2023-04-01T00:03:53;15.50;;;6.20;;
69847;SDS011;57143;55.940;37.496;2023-04-01T00:06:21;15.43;;;6.72;;
69847;SDS011;57143;55.940;37.496;2023-04-01T00:08:50;20.38;;;7.03;;
69847;SDS011;57143;55.940;37.496;2023-04-01T00:11:18;16.05;;;5.50;;
69847;SDS011;57143;55.940;37.496;2023-04-01T00:13:46;17.75;;;6.30;;
69847;SDS011;57143;55.940;37.496;2023-04-01T00:16:14;16.77;;;6.03;;
69847;SDS011;57143;55.940;37.496;2023-04-01T00:18:41;15.55;;;6.85;;
69847;SDS011;57143;55.940;37.496;2023-04-01T00:21:08;17.90;;;6.03;;
69847;SDS011;57143;55.940;37.496;2023-04-01T00:23:35;15.68;;;6.30;;
69847;SDS011;57143;55.940;37.496;2023-04-01T00:26:04;16.58;;;6.82;;
69847;SDS011;57143;55.940;37.496;2023-04-01T00:28:31;16.70;;;6.40;;
69847;SDS011;57143;55.940;37.496;2023-04-01T00:31:03;17.50;;;6.88;;
69847;SDS011;57143;55.940;37.496;2023-04-01T00:33:32;16.98;;;6.22;;
69847;SDS011;57143;55.940;37.496;2023-04-01T00:36:05;17.10;;;6.57;;
69847;SDS011;57143;55.940;37.496;2023-04-01T00:38:33;19.08;;;6.47;;
69847;SDS011;57143;55.940;37.496;2023-04-01T00:41:01;17.30;;;6.33;;
69847;SDS011;57143;55.940;37.496;2023-04-01T00:43:30;16.35;;;6.15;;
69847;SDS011;57143;55.940;37.496;2023-04-01T00:45:57;17.25;;;6.38;;
69847;SDS011;57143;55.940;37.496;2023-04-01T00:48:26;15.02;;;6.07;;
69847;SDS011;57143;55.940;37.496;2023-04-01T00:50:58;16.20;;;6.43;;
69847;SDS011;57143;55.940;37.496;2023-04-01T00:53:28;15.07;;;6.07;;
69847;SDS011;57143;55.940;37.496;2023-04-01T00:55:59;15.50;;;6.25;;
69847;SDS011;57143;55.940;37.496;2023-04-01T00:58:31;15.23;;;5.97;;
69847;SDS011;57143;55.940;37.496;2023-04-01T01:01:04;13.98;;;5.85;;
69847;SDS011;57143;55.940;37.496;2023-04-01T01:03:34;17.48;;;5.80;;
69847;SDS011;57143;55.940;37.496;2023-04-01T01:06:09;16.67;;;5.53;;
69847;SDS011;57143;55.940;37.496;2023-04-01T01:11:37;13.73;;;4.85;;
69847;SDS011;57143;55.940;37.496;2023-04-01T01:14:12;14.10;;;5.25;;
69847;SDS011;57143;55.940;37.496;2023-04-01T01:16:51;14.63;;;5.05;;
69847;SDS011;57143;55.940;37.496;2023-04-01T01:22:52;14.00;;;5.65;;
69847;SDS011;57143;55.940;37.496;2023-04-01T01:25:32;14.50;;;5.35;;
69847;SDS011;57143;55.940;37.496;2023-04-01T01:28:15;16.83;;;5.90;;
69847;SDS011;57143;55.940;37.496;2023-04-01T01:30:57;15.40;;;5.68;;
69847;SDS011;57143;55.940;37.496;2023-04-01T01:33:34;14.17;;;5.30;;
69847;SDS011;57143;55.940;37.496;2023-04-01T01:36:18;15.80;;;5.05;;
69847;SDS011;57143;55.940;37.496;2023-04-01T01:38:47;13.68;;;5.20;;
69847;SDS011;57143;55.940;37.496;2023-04-01T01:41:17;15.35;;;5.88;;
69847;SDS011;57143;55.940;37.496;2023-04-01T01:43:47;14.00;;;5.78;;
69847;SDS011;57143;55.940;37.496;2023-04-01T01:46:17;16.03;;;6.53;;
69847;SDS011;57143;55.940;37.496;2023-04-01T01:48:48;15.23;;;6.03;;
69847;SDS011;57143;55.940;37.496;2023-04-01T01:51:19;16.42;;;6.05;;
69847;SDS011;57143;55.940;37.496;2023-04-01T01:53:47;19.67;;;6.57;;
69847;SDS011;57143;55.940;37.496;2023-04-01T01:56:14;15.07;;;6.63;;
69847;SDS011;57143;55.940;37.496;2023-04-01T01:58:45;15.40;;;5.83;;
69847;SDS011;57143;55.940;37.496;2023-04-01T02:01:17;14.82;;;5.57;;
69847;SDS011;57143;55.940;37.496;2023-04-01T02:03:47;15.10;;;5.47;;
69847;SDS011;57143;55.940;37.496;2023-04-01T02:06:17;14.50;;;5.97;;
69847;SDS011;57143;55.940;37.496;2023-04-01T02:08:49;16.35;;;5.80;;
69847;SDS011;57143;55.940;37.496;2023-04-01T02:11:18;13.87;;;5.60;;
69847;SDS011;57143;55.940;37.496;2023-04-01T02:13:52;16.08;;;6.32;;
69847;SDS011;57143;55.940;37.496;2023-04-01T02:16:43;14.50;;;5.70;;
69847;SDS011;57143;55.940;37.496;2023-04-01T02:19:14;16.38;;;5.57;;
69847;SDS011;57143;55.940;37.496;2023-04-01T02:21:49;16.15;;;6.10;;
69847;SDS011;57143;55.940;37.496;2023-04-01T02:24:19;13.83;;;5.87;;
69847;SDS011;57143;55.940;37.496;2023-04-01T02:26:49;13.93;;;4.72;;
69847;SDS011;57143;55.940;37.496;2023-04-01T02:29:18;14.18;;;5.43;;
69847;SDS011;57143;55.940;37.496;2023-04-01T02:31:47;14.77;;;5.68;;
69847;SDS011;57143;55.940;37.496;2023-04-01T02:34:16;13.38;;;5.45;;
69847;SDS011;57143;55.940;37.496;2023-04-01T02:36:44;14.43;;;5.53;;
69847;SDS011;57143;55.940;37.496;2023-04-01T02:39:12;14.52;;;5.72;;
69847;SDS011;57143;55.940;37.496;2023-04-01T02:41:40;16.90;;;5.72;;
69847;SDS011;57143;55.940;37.496;2023-04-01T02:44:08;15.93;;;6.10;;
69847;SDS011;57143;55.940;37.496;2023-04-01T02:46:35;15.90;;;6.05;;
69847;SDS011;57143;55.940;37.496;2023-04-01T02:49:03;14.70;;;5.67;;
69847;SDS011;57143;55.940;37.496;2023-04-01T02:51:30;15.85;;;5.65;;
69847;SDS011;57143;55.940;37.496;2023-04-01T02:53:58;17.10;;;5.82;;
69847;SDS011;57143;55.940;37.496;2023-04-01T02:56:26;17.40;;;6.88;;
69847;SDS011;57143;55.940;37.496;2023-04-01T02:58:53;19.15;;;7.50;;
69847;SDS011;57143;55.940;37.496;2023-04-01T03:01:21;17.93;;;6.40;;
69847;SDS011;57143;55.940;37.496;2023-04-01T03:03:48;18.33;;;7.05;;
69847;SDS011;57143;55.940;37.496;2023-04-01T03:06:16;18.20;;;6.68;;
69847;SDS011;57143;55.940;37.496;2023-04-01T03:08:43;16.80;;;6.22;;
69847;SDS011;57143;55.940;37.496;2023-04-01T03:11:11;21.98;;;7.75;;
69847;SDS011;57143;55.940;37.496;2023-04-01T03:13:39;17.90;;;7.00;;
69847;SDS011;57143;55.940;37.496;2023-04-01T03:16:06;17.63;;;6.90;;
69847;SDS011;57143;55.940;37.496;2023-04-01T03:18:34;16.23;;;6.65;;
69847;SDS011;57143;55.940;37.496;2023-04-01T03:21:12;14.93;;;6.10;;
69847;SDS011;57143;55.940;37.496;2023-04-01T03:23:40;18.55;;;7.13;;
69847;SDS011;57143;55.940;37.496;2023-04-01T03:26:07;19.47;;;6.90;;
69847;SDS011;57143;55.940;37.496;2023-04-01T03:28:35;16.98;;;7.05;;
69847;SDS011;57143;55.940;37.496;2023-04-01T03:31:03;17.85;;;7.25;;
69847;SDS011;57143;55.940;37.496;2023-04-01T03:33:31;18.40;;;6.25;;
69847;SDS011;57143;55.940;37.496;2023-04-01T03:35:58;15.95;;;6.80;;
69847;SDS011;57143;55.940;37.496;2023-04-01T03:38:26;17.23;;;6.80;;
69847;SDS011;57143;55.940;37.496;2023-04-01T03:40:53;19.95;;;7.20;;
69847;SDS011;57143;55.940;37.496;2023-04-01T03:43:20;16.33;;;6.72;;
69847;SDS011;57143;55.940;37.496;2023-04-01T03:45:48;17.85;;;6.63;;
69847;SDS011;57143;55.940;37.496;2023-04-01T03:48:17;19.67;;;6.75;;
69847;SDS011;57143;55.940;37.496;2023-04-01T03:50:45;18.30;;;6.07;;
69847;SDS011;57143;55.940;37.496;2023-04-01T03:53:13;18.05;;;7.25;;
69847;SDS011;57143;55.940;37.496;2023-04-01T03:55:41;18.45;;;7.28;;
69847;SDS011;57143;55.940;37.496;2023-04-01T03:58:08;17.90;;;7.45;;
69847;SDS011;57143;55.940;37.496;2023-04-01T04:00:36;21.33;;;7.68;;
69847;SDS011;57143;55.940;37.496;2023-04-01T04:03:03;18.20;;;7.47;;
69847;SDS011;57143;55.940;37.496;2023-04-01T04:05:31;18.08;;;7.05;;
69847;SDS011;57143;55.940;37.496;2023-04-01T04:07:59;17.10;;;6.65;;
69847;SDS011;57143;55.940;37.496;2023-04-01T04:10:26;18.75;;;6.93;;
69847;SDS011;57143;55.940;37.496;2023-04-01T04:12:54;17.65;;;7.20;;
69847;SDS011;57143;55.940;37.496;2023-04-01T04:15:21;19.77;;;6.73;;
69847;SDS011;57143;55.940;37.496;2023-04-01T04:17:49;17.33;;;7.03;;
69847;SDS011;57143;55.940;37.496;2023-04-01T04:20:16;16.23;;;6.20;;
69847;SDS011;57143;55.940;37.496;2023-04-01T04:22:44;19.10;;;6.50;;
69847;SDS011;57143;55.940;37.496;2023-04-01T04:25:11;16.05;;;7.03;;
69847;SDS011;57143;55.940;37.496;2023-04-01T04:27:38;16.23;;;5.60;;
69847;SDS011;57143;55.940;37.496;2023-04-01T04:30:06;15.63;;;6.47;;
69847;SDS011;57143;55.940;37.496;2023-04-01T04:32:35;19.63;;;6.55;;
69847;SDS011;57143;55.940;37.496;2023-04-01T04:35:02;12.70;;;5.70;;
69847;SDS011;57143;55.940;37.496;2023-04-01T04:37:31;17.65;;;6.63;;
69847;SDS011;57143;55.940;37.496;2023-04-01T04:40:00;15.83;;;6.40;;
69847;SDS011;57143;55.940;37.496;2023-04-01T04:42:28;15.95;;;6.63;;
69847;SDS011;57143;55.940;37.496;2023-04-01T04:44:55;15.73;;;6.22;;
69847;SDS011;57143;55.940;37.496;2023-04-01T04:47:22;16.80;;;6.38;;
69847;SDS011;57143;55.940;37.496;2023-04-01T04:49:49;14.05;;;5.72;;
69847;SDS011;57143;55.940;37.496;2023-04-01T04:52:16;16.80;;;5.87;;
69847;SDS011;57143;55.940;37.496;2023-04-01T04:54:44;15.32;;;5.90;;
69847;SDS011;57143;55.940;37.496;2023-04-01T04:57:12;13.48;;;5.53;;
69847;SDS011;57143;55.940;37.496;2023-04-01T04:59:39;17.33;;;6.30;;
69847;SDS011;57143;55.940;37.496;2023-04-01T05:02:07;17.58;;;6.90;;
69847;SDS011;57143;55.940;37.496;2023-04-01T05:04:34;18.13;;;6.70;;
69847;SDS011;57143;55.940;37.496;2023-04-01T05:07:02;18.25;;;7.10;;
69847;SDS011;57143;55.940;37.496;2023-04-01T05:09:29;18.88;;;7.57;;
69847;SDS011;57143;55.940;37.496;2023-04-01T05:11:57;19.73;;;8.23;;
69847;SDS011;57143;55.940;37.496;2023-04-01T05:14:26;23.33;;;8.02;;
69847;SDS011;57143;55.940;37.496;2023-04-01T05:16:53;21.53;;;8.70;;
69847;SDS011;57143;55.940;37.496;2023-04-01T05:19:20;22.90;;;9.38;;
69847;SDS011;57143;55.940;37.496;2023-04-01T05:21:47;18.85;;;8.30;;
69847;SDS011;57143;55.940;37.496;2023-04-01T05:24:15;24.48;;;8.63;;
69847;SDS011;57143;55.940;37.496;2023-04-01T05:26:42;23.75;;;7.93;;
69847;SDS011;57143;55.940;37.496;2023-04-01T05:29:09;22.70;;;8.93;;
69847;SDS011;57143;55.940;37.496;2023-04-01T05:31:38;25.58;;;10.30;;
69847;SDS011;57143;55.940;37.496;2023-04-01T05:34:05;24.20;;;9.20;;
69847;SDS011;57143;55.940;37.496;2023-04-01T05:36:32;24.52;;;10.80;;
69847;SDS011;57143;55.940;37.496;2023-04-01T05:39:00;31.00;;;11.02;;
69847;SDS011;57143;55.940;37.496;2023-04-01T05:41:28;26.13;;;10.67;;
69847;SDS011;57143;55.940;37.496;2023-04-01T05:43:56;31.58;;;11.88;;
69847;SDS011;57143;55.940;37.496;2023-04-01T05:46:23;34.10;;;11.93;;
69847;SDS011;57143;55.940;37.496;2023-04-01T05:48:52;25.40;;;10.20;;
69847;SDS011;57143;55.940;37.496;2023-04-01T05:51:19;23.98;;;9.52;;
69847;SDS011;57143;55.940;37.496;2023-04-01T05:53:46;27.77;;;10.23;;
69847;SDS011;57143;55.940;37.496;2023-04-01T05:56:13;25.95;;;9.73;;
69847;SDS011;57143;55.940;37.496;2023-04-01T05:58:41;23.33;;;9.50;;
69847;SDS011;57143;55.940;37.496;2023-04-01T06:01:09;25.55;;;9.75;;
69847;SDS011;57143;55.940;37.496;2023-04-01T06:03:37;21.50;;;8.98;;
69847;SDS011;57143;55.940;37.496;2023-04-01T06:06:08;18.50;;;8.00;;
69847;SDS011;57143;55.940;37.496;2023-04-01T06:08:40;21.50;;;8.52;;
69847;SDS011;57143;55.940;37.496;2023-04-01T06:11:12;22.70;;;8.65;;
69847;SDS011;57143;55.940;37.496;2023-04-01T06:13:53;22.55;;;9.07;;
69847;SDS011;57143;55.940;37.496;2023-04-01T06:16:35;17.70;;;8.75;;
69847;SDS011;57143;55.940;37.496;2023-04-01T06:19:18;19.67;;;8.60;;
69847;SDS011;57143;55.940;37.496;2023-04-01T06:28:00;19.27;;;8.20;;
69847;SDS011;57143;55.940;37.496;2023-04-01T06:30:45;18.77;;;7.90;;
69847;SDS011;57143;55.940;37.496;2023-04-01T06:33:25;17.23;;;7.60;;
69847;SDS011;57143;55.940;37.496;2023-04-01T06:39:04;17.88;;;7.63;;
69847;SDS011;57143;55.940;37.496;2023-04-01T06:41:53;17.98;;;7.18;;
69847;SDS011;57143;55.940;37.496;2023-04-01T06:44:33;20.00;;;7.80;;
69847;SDS011;57143;55.940;37.496;2023-04-01T06:47:10;18.67;;;7.53;;
69847;SDS011;57143;55.940;37.496;2023-04-01T06:49:50;14.93;;;6.05;;
69847;SDS011;57143;55.940;37.496;2023-04-01T06:52:23;18.63;;;6.53;;
69847;SDS011;57143;55.940;37.496;2023-04-01T06:54:58;18.33;;;7.35;;
69847;SDS011;57143;55.940;37.496;2023-04-01T06:57:38;15.68;;;6.50;;
69847;SDS011;57143;55.940;37.496;2023-04-01T07:00:11;19.00;;;7.63;;
69847;SDS011;57143;55.940;37.496;2023-04-01T07:02:43;16.08;;;7.78;;
69847;SDS011;57143;55.940;37.496;2023-04-01T07:05:18;16.08;;;6.28;;
69847;SDS011;57143;55.940;37.496;2023-04-01T07:07:47;16.02;;;7.05;;
69847;SDS011;57143;55.940;37.496;2023-04-01T07:10:19;14.82;;;6.47;;
69847;SDS011;57143;55.940;37.496;2023-04-01T07:12:53;14.90;;;6.50;;
69847;SDS011;57143;55.940;37.496;2023-04-01T07:15:24;13.48;;;6.70;;
69847;SDS011;57143;55.940;37.496;2023-04-01T07:17:56;14.63;;;6.60;;
69847;SDS011;57143;55.940;37.496;2023-04-01T07:20:29;16.58;;;7.10;;
69847;SDS011;57143;55.940;37.496;2023-04-01T07:22:59;13.73;;;6.45;;
69847;SDS011;57143;55.940;37.496;2023-04-01T07:25:30;17.47;;;7.60;;
69847;SDS011;57143;55.940;37.496;2023-04-01T07:28:03;18.45;;;7.50;;
69847;SDS011;57143;55.940;37.496;2023-04-01T07:30:33;15.75;;;6.97;;
69847;SDS011;57143;55.940;37.496;2023-04-01T07:33:12;18.40;;;7.75;;
69847;SDS011;57143;55.940;37.496;2023-04-01T07:35:46;17.55;;;8.32;;
69847;SDS011;57143;55.940;37.496;2023-04-01T07:38:24;16.13;;;7.83;;
69847;SDS011;57143;55.940;37.496;2023-04-01T07:41:04;16.95;;;7.90;;
69847;SDS011;57143;55.940;37.496;2023-04-01T07:43:45;18.27;;;7.78;;
69847;SDS011;57143;55.940;37.496;2023-04-01T07:46:26;16.45;;;7.03;;
69847;SDS011;57143;55.940;37.496;2023-04-01T07:49:04;13.05;;;6.65;;
69847;SDS011;57143;55.940;37.496;2023-04-01T07:51:37;14.50;;;5.90;;
69847;SDS011;57143;55.940;37.496;2023-04-01T07:54:10;15.82;;;6.90;;
69847;SDS011;57143;55.940;37.496;2023-04-01T07:56:45;14.23;;;6.38;;
69847;SDS011;57143;55.940;37.496;2023-04-01T07:59:20;12.55;;;5.78;;
69847;SDS011;57143;55.940;37.496;2023-04-01T08:01:59;11.35;;;5.30;;
69847;SDS011;57143;55.940;37.496;2023-04-01T08:04:46;13.33;;;6.37;;
69847;SDS011;57143;55.940;37.496;2023-04-01T08:07:22;11.85;;;5.80;;
69847;SDS011;57143;55.940;37.496;2023-04-01T08:09:53;12.15;;;5.53;;
69847;SDS011;57143;55.940;37.496;2023-04-01T08:12:30;13.30;;;6.30;;
69847;SDS011;57143;55.940;37.496;2023-04-01T08:15:07;12.45;;;5.55;;
69847;SDS011;57143;55.940;37.496;2023-04-01T08:17:42;10.97;;;5.47;;
69847;SDS011;57143;55.940;37.496;2023-04-01T08:20:27;13.98;;;5.60;;
69847;SDS011;57143;55.940;37.496;2023-04-01T08:23:00;13.48;;;6.15;;
69847;SDS011;57143;55.940;37.496;2023-04-01T08:25:33;12.00;;;5.38;;
69847;SDS011;57143;55.940;37.496;2023-04-01T08:28:08;14.55;;;5.85;;
69847;SDS011;57143;55.940;37.496;2023-04-01T08:30:40;15.20;;;6.50;;
69847;SDS011;57143;55.940;37.496;2023-04-01T08:33:13;15.88;;;6.28;;
69847;SDS011;57143;55.940;37.496;2023-04-01T08:35:46;14.07;;;6.53;;
69847;SDS011;57143;55.940;37.496;2023-04-01T08:38:21;13.60;;;5.55;;
69847;SDS011;57143;55.940;37.496;2023-04-01T08:41:00;14.80;;;6.68;;
69847;SDS011;57143;55.940;37.496;2023-04-01T08:43:41;15.03;;;6.13;;
69847;SDS011;57143;55.940;37.496;2023-04-01T08:46:27;15.80;;;6.30;;
69847;SDS011;57143;55.940;37.496;2023-04-01T08:49:17;16.88;;;6.80;;
69847;SDS011;57143;55.940;37.496;2023-04-01T08:57:52;13.17;;;5.13;;
69847;SDS011;57143;55.940;37.496;2023-04-01T09:00:31;13.73;;;5.60;;
69847;SDS011;57143;55.940;37.496;2023-04-01T09:03:10;13.60;;;6.15;;
69847;SDS011;57143;55.940;37.496;2023-04-01T09:06:09;15.73;;;6.10;;
69847;SDS011;57143;55.940;37.496;2023-04-01T09:08:52;16.50;;;6.38;;
69847;SDS011;57143;55.940;37.496;2023-04-01T09:11:40;15.73;;;5.97;;
69847;SDS011;57143;55.940;37.496;2023-04-01T09:14:35;15.15;;;6.35;;
69847;SDS011;57143;55.940;37.496;2023-04-01T09:20:29;16.10;;;6.38;;
69847;SDS011;57143;55.940;37.496;2023-04-01T09:23:13;16.48;;;5.93;;
69847;SDS011;57143;55.940;37.496;2023-04-01T09:26:03;15.87;;;6.23;;
69847;SDS011;57143;55.940;37.496;2023-04-01T09:28:45;15.00;;;5.38;;
69847;SDS011;57143;55.940;37.496;2023-04-01T09:31:25;12.23;;;4.53;;
69847;SDS011;57143;55.940;37.496;2023-04-01T09:34:20;14.77;;;4.93;;
69847;SDS011;57143;55.940;37.496;2023-04-01T09:37:20;14.75;;;5.60;;
69847;SDS011;57143;55.940;37.496;2023-04-01T09:40:02;11.50;;;3.77;;
69847;SDS011;57143;55.940;37.496;2023-04-01T09:42:47;16.70;;;5.55;;
69847;SDS011;57143;55.940;37.496;2023-04-01T09:45:33;14.10;;;5.85;;
69847;SDS011;57143;55.940;37.496;2023-04-01T09:48:11;18.25;;;6.22;;
69847;SDS011;57143;55.940;37.496;2023-04-01T09:50:53;16.08;;;6.03;;
69847;SDS011;57143;55.940;37.496;2023-04-01T09:53:45;14.30;;;5.50;;
69847;SDS011;57143;55.940;37.496;2023-04-01T10:02:54;18.73;;;7.30;;
69847;SDS011;57143;55.940;37.496;2023-04-01T10:06:13;15.95;;;7.30;;
69847;SDS011;57143;55.940;37.496;2023-04-01T10:12:17;15.82;;;6.63;;
69847;SDS011;57143;55.940;37.496;2023-04-01T10:15:16;15.07;;;6.10;;
69847;SDS011;57143;55.940;37.496;2023-04-01T10:18:19;17.73;;;6.43;;
69847;SDS011;57143;55.940;37.496;2023-04-01T10:21:13;16.88;;;6.13;;
69847;SDS011;57143;55.940;37.496;2023-04-01T10:23:59;15.80;;;5.20;;
69847;SDS011;57143;55.940;37.496;2023-04-01T10:26:54;12.77;;;5.00;;
69847;SDS011;57143;55.940;37.496;2023-04-01T10:29:49;13.15;;;4.82;;
69847;SDS011;57143;55.940;37.496;2023-04-01T10:39:08;15.40;;;5.27;;
69847;SDS011;57143;55.940;37.496;2023-04-01T10:48:23;14.60;;;5.03;;
69847;SDS011;57143;55.940;37.496;2023-04-01T10:51:14;13.68;;;4.72;;
69847;SDS011;57143;55.940;37.496;2023-04-01T10:53:58;12.40;;;4.97;;
69847;SDS011;57143;55.940;37.496;2023-04-01T10:56:42;13.57;;;5.00;;
69847;SDS011;57143;55.940;37.496;2023-04-01T10:59:23;15.02;;;4.90;;
69847;SDS011;57143;55.940;37.496;2023-04-01T11:02:12;14.30;;;5.22;;
69847;SDS011;57143;55.940;37.496;2023-04-01T11:08:31;19.23;;;6.10;;
69847;SDS011;57143;55.940;37.496;2023-04-01T11:17:55;14.13;;;4.47;;
69847;SDS011;57143;55.940;37.496;2023-04-01T11:20:53;12.90;;;5.30;;
69847;SDS011;57143;55.940;37.496;2023-04-01T11:23:43;14.20;;;5.27;;
69847;SDS011;57143;55.940;37.496;2023-04-01T11:26:29;16.85;;;5.60;;
69847;SDS011;57143;55.940;37.496;2023-04-01T11:29:04;11.15;;;4.50;;
69847;SDS011;57143;55.940;37.496;2023-04-01T11:31:54;11.43;;;3.75;;
69847;SDS011;57143;55.940;37.496;2023-04-01T11:34:43;14.60;;;4.10;;
69847;SDS011;57143;55.940;37.496;2023-04-01T11:37:29;13.97;;;4.20;;
69847;SDS011;57143;55.940;37.496;2023-04-01T11:40:08;13.98;;;4.22;;
69847;SDS011;57143;55.940;37.496;2023-04-01T11:42:49;11.05;;;4.07;;
69847;SDS011;57143;55.940;37.496;2023-04-01T11:45:27;12.25;;;3.97;;
69847;SDS011;57143;55.940;37.496;2023-04-01T11:48:13;10.43;;;4.03;;
69847;SDS011;57143;55.940;37.496;2023-04-01T11:51:00;12.10;;;4.30;;
69847;SDS011;57143;55.940;37.496;2023-04-01T11:53:50;10.70;;;4.05;;
69847;SDS011;57143;55.940;37.496;2023-04-01T11:56:32;10.70;;;4.68;;
69847;SDS011;57143;55.940;37.496;2023-04-01T12:02:20;10.15;;;4.20;;
69847;SDS011;57143;55.940;37.496;2023-04-01T12:07:57;11.02;;;4.22;;
69847;SDS011;57143;55.940;37.496;2023-04-01T12:10:33;10.57;;;3.75;;
69847;SDS011;57143;55.940;37.496;2023-04-01T12:13:09;12.40;;;3.80;;
69847;SDS011;57143;55.940;37.496;2023-04-01T12:15:50;8.63;;;3.40;;
69847;SDS011;57143;55.940;37.496;2023-04-01T12:18:33;10.43;;;3.40;;
69847;SDS011;57143;55.940;37.496;2023-04-01T12:21:09;10.15;;;4.00;;
69847;SDS011;57143;55.940;37.496;2023-04-01T12:24:02;12.52;;;3.95;;
69847;SDS011;57143;55.940;37.496;2023-04-01T12:26:43;9.00;;;3.53;;
69847;SDS011;57143;55.940;37.496;2023-04-01T12:29:29;12.32;;;3.55;;
69847;SDS011;57143;55.940;37.496;2023-04-01T12:32:09;13.90;;;3.77;;
69847;SDS011;57143;55.940;37.496;2023-04-01T12:34:58;9.20;;;3.33;;
69847;SDS011;57143;55.940;37.496;2023-04-01T12:37:41;10.38;;;3.53;;
69847;SDS011;57143;55.940;37.496;2023-04-01T12:40:26;9.98;;;3.30;;
69847;SDS011;57143;55.940;37.496;2023-04-01T12:46:22;17.17;;;5.03;;
69847;SDS011;57143;55.940;37.496;2023-04-01T12:51:50;14.05;;;3.00;;
69847;SDS011;57143;55.940;37.496;2023-04-01T12:57:50;8.90;;;3.00;;
69847;SDS011;57143;55.940;37.496;2023-04-01T13:00:53;10.03;;;2.93;;
69847;SDS011;57143;55.940;37.496;2023-04-01T13:03:37;10.18;;;3.00;;
69847;SDS011;57143;55.940;37.496;2023-04-01T13:06:25;9.30;;;2.97;;
69847;SDS011;57143;55.940;37.496;2023-04-01T13:09:01;11.88;;;3.63;;
69847;SDS011;57143;55.940;37.496;2023-04-01T13:11:45;11.10;;;3.78;;
69847;SDS011;57143;55.940;37.496;2023-04-01T13:14:33;9.87;;;3.17;;
69847;SDS011;57143;55.940;37.496;2023-04-01T13:17:12;8.48;;;3.08;;
69847;SDS011;57143;55.940;37.496;2023-04-01T13:19:47;11.43;;;3.30;;
69847;SDS011;57143;55.940;37.496;2023-04-01T13:22:20;11.35;;;3.60;;
69847;SDS011;57143;55.940;37.496;2023-04-01T13:24:56;15.55;;;4.35;;
69847;SDS011;57143;55.940;37.496;2023-04-01T13:27:30;12.67;;;3.70;;
69847;SDS011;57143;55.940;37.496;2023-04-01T13:30:04;11.63;;;3.90;;
69847;SDS011;57143;55.940;37.496;2023-04-01T13:32:46;9.80;;;3.72;;
69847;SDS011;57143;55.940;37.496;2023-04-01T13:35:21;13.27;;;4.30;;
69847;SDS011;57143;55.940;37.496;2023-04-01T13:38:02;14.30;;;3.75;;
69847;SDS011;57143;55.940;37.496;2023-04-01T13:40:48;9.07;;;3.00;;
69847;SDS011;57143;55.940;37.496;2023-04-01T13:43:22;10.35;;;2.85;;
69847;SDS011;57143;55.940;37.496;2023-04-01T13:46:05;12.30;;;3.45;;
69847;SDS011;57143;55.940;37.496;2023-04-01T13:48:49;10.95;;;3.65;;
69847;SDS011;57143;55.940;37.496;2023-04-01T13:51:47;10.90;;;3.63;;
69847;SDS011;57143;55.940;37.496;2023-04-01T13:57:36;11.43;;;3.83;;
69847;SDS011;57143;55.940;37.496;2023-04-01T14:00:19;13.05;;;4.60;;
69847;SDS011;57143;55.940;37.496;2023-04-01T14:03:02;10.80;;;3.05;;
69847;SDS011;57143;55.940;37.496;2023-04-01T14:05:48;10.77;;;3.63;;
69847;SDS011;57143;55.940;37.496;2023-04-01T14:08:33;10.13;;;3.40;;
69847;SDS011;57143;55.940;37.496;2023-04-01T14:11:12;13.25;;;3.72;;
69847;SDS011;57143;55.940;37.496;2023-04-01T14:13:48;14.48;;;3.88;;
69847;SDS011;57143;55.940;37.496;2023-04-01T14:19:33;11.00;;;3.97;;
69847;SDS011;57143;55.940;37.496;2023-04-01T14:22:20;12.57;;;4.50;;
69847;SDS011;57143;55.940;37.496;2023-04-01T14:25:00;12.35;;;4.10;;
69847;SDS011;57143;55.940;37.496;2023-04-01T14:27:51;13.57;;;4.75;;
69847;SDS011;57143;55.940;37.496;2023-04-01T14:30:41;13.52;;;5.05;;
69847;SDS011;57143;55.940;37.496;2023-04-01T14:33:26;15.93;;;4.93;;
69847;SDS011;57143;55.940;37.496;2023-04-01T14:36:17;15.90;;;5.60;;
69847;SDS011;57143;55.940;37.496;2023-04-01T14:39:00;16.60;;;5.18;;
69847;SDS011;57143;55.940;37.496;2023-04-01T14:41:43;14.30;;;5.68;;
69847;SDS011;57143;55.940;37.496;2023-04-01T14:44:22;13.82;;;4.88;;
69847;SDS011;57143;55.940;37.496;2023-04-01T14:50:02;12.67;;;4.33;;
69847;SDS011;57143;55.940;37.496;2023-04-01T14:52:35;12.60;;;3.92;;
69847;SDS011;57143;55.940;37.496;2023-04-01T14:55:15;12.82;;;4.32;;
69847;SDS011;57143;55.940;37.496;2023-04-01T14:58:07;10.85;;;3.75;;
69847;SDS011;57143;55.940;37.496;2023-04-01T15:00:41;12.95;;;4.90;;
69847;SDS011;57143;55.940;37.496;2023-04-01T15:03:26;12.60;;;5.10;;
69847;SDS011;57143;55.940;37.496;2023-04-01T15:06:08;14.15;;;5.90;;
69847;SDS011;57143;55.940;37.496;2023-04-01T15:09:00;16.30;;;7.05;;
69847;SDS011;57143;55.940;37.496;2023-04-01T15:11:38;16.02;;;5.75;;
69847;SDS011;57143;55.940;37.496;2023-04-01T15:14:17;11.75;;;4.47;;
69847;SDS011;57143;55.940;37.496;2023-04-01T15:17:12;15.10;;;5.20;;
69847;SDS011;57143;55.940;37.496;2023-04-01T15:19:57;12.70;;;5.70;;
69847;SDS011;57143;55.940;37.496;2023-04-01T15:22:43;13.38;;;5.78;;
69847;SDS011;57143;55.940;37.496;2023-04-01T15:25:32;12.05;;;5.18;;
69847;SDS011;57143;55.940;37.496;2023-04-01T15:28:07;16.33;;;6.07;;
69847;SDS011;57143;55.940;37.496;2023-04-01T15:30:44;12.73;;;5.13;;
69847;SDS011;57143;55.940;37.496;2023-04-01T15:33:25;15.82;;;5.20;;
69847;SDS011;57143;55.940;37.496;2023-04-01T15:36:09;11.73;;;4.70;;
69847;SDS011;57143;55.940;37.496;2023-04-01T15:38:48;13.50;;;5.50;;
69847;SDS011;57143;55.940;37.496;2023-04-01T15:41:22;11.93;;;5.60;;
69847;SDS011;57143;55.940;37.496;2023-04-01T15:43:54;14.30;;;5.97;;
69847;SDS011;57143;55.940;37.496;2023-04-01T15:46:39;15.77;;;5.43;;
69847;SDS011;57143;55.940;37.496;2023-04-01T15:49:22;13.05;;;5.63;;
69847;SDS011;57143;55.940;37.496;2023-04-01T15:52:05;16.05;;;5.93;;
69847;SDS011;57143;55.940;37.496;2023-04-01T15:57:52;12.30;;;5.07;;
69847;SDS011;57143;55.940;37.496;2023-04-01T16:00:32;14.13;;;5.68;;
69847;SDS011;57143;55.940;37.496;2023-04-01T16:03:19;15.90;;;6.18;;
69847;SDS011;57143;55.940;37.496;2023-04-01T16:06:13;14.85;;;6.90;;
69847;SDS011;57143;55.940;37.496;2023-04-01T16:11:52;13.80;;;6.23;;
69847;SDS011;57143;55.940;37.496;2023-04-01T16:14:28;17.63;;;6.68;;
69847;SDS011;57143;55.940;37.496;2023-04-01T16:17:11;12.35;;;5.80;;
69847;SDS011;57143;55.940;37.496;2023-04-01T16:19:54;13.57;;;6.18;;
69847;SDS011;57143;55.940;37.496;2023-04-01T16:22:29;16.13;;;6.43;;
69847;SDS011;57143;55.940;37.496;2023-04-01T16:25:07;15.20;;;7.07;;
69847;SDS011;57143;55.940;37.496;2023-04-01T16:27:46;16.45;;;7.63;;
69847;SDS011;57143;55.940;37.496;2023-04-01T16:30:32;19.30;;;7.82;;
69847;SDS011;57143;55.940;37.496;2023-04-01T16:33:03;15.80;;;6.82;;
69847;SDS011;57143;55.940;37.496;2023-04-01T16:35:40;17.60;;;7.15;;
69847;SDS011;57143;55.940;37.496;2023-04-01T16:38:12;18.33;;;7.40;;
69847;SDS011;57143;55.940;37.496;2023-04-01T16:40:47;18.38;;;8.05;;
69847;SDS011;57143;55.940;37.496;2023-04-01T16:43:25;18.02;;;7.72;;